Time;durP1;ratioP1;P1;durP2;ratioP2;P2;SDS_P1;SDS_P2;PMS_P1;PMS_P2;Temp;Humidity;BMP_temperature;BMP_pressure;BME280_temperature;BME280_humidity;BME280_pressure;Samples;Min_cycle;Max_cycle;Signal;HPM_P1;HPM_P2
2023/09/01 00:01:00;;;;;;;6.38;4.30;;;19.40;54.60;;;;;;5027408;28;114210;-78
2023/09/01 00:04:00;;;;;;;6.72;4.43;;;19.40;54.40;;;;;;5004390;28;114319;-78
2023/09/01 00:06:27;;;;;;;7.60;4.38;;;19.40;54.40;;;;;;5026216;28;116583;-78
2023/09/01 00:08:54;;;;;;;8.88;5.53;;;19.30;54.10;;;;;;5026475;28;114546;-78
2023/09/01 00:11:21;;;;;;;6.70;4.43;;;19.30;54.40;;;;;;5026652;28;114417;-78
2023/09/01 00:13:48;;;;;;;7.53;4.70;;;19.20;54.50;;;;;;5025638;28;114460;-78
2023/09/01 00:16:15;;;;;;;9.68;4.85;;;19.20;54.60;;;;;;5026239;28;114925;-78
2023/09/01 00:18:42;;;;;;;10.10;5.00;;;19.10;54.50;;;;;;5026167;28;115921;-79
2023/09/01 00:21:09;;;;;;;9.52;4.47;;;19.10;55.00;;;;;;5025615;28;114370;-80
2023/09/01 00:23:36;;;;;;;9.13;5.07;;;19.10;54.80;;;;;;5026987;28;114409;-78
2023/09/01 00:26:03;;;;;;;7.95;4.60;;;19.10;54.90;;;;;;5026062;28;114942;-78
2023/09/01 00:28:30;;;;;;;8.02;4.47;;;19.20;55.00;;;;;;5026464;28;114597;-78
2023/09/01 00:30:59;;;;;;;6.40;4.60;;;19.20;54.70;;;;;;5027069;28;114180;-78
2023/09/01 00:33:30;;;;;;;7.38;4.35;;;19.20;54.20;;;;;;5025375;27;114126;-78
2023/09/01 00:35:58;;;;;;;8.57;5.22;;;19.20;54.40;;;;;;5024272;28;114960;-79
2023/09/01 00:38:25;;;;;;;7.07;4.88;;;19.20;54.40;;;;;;5008175;28;114770;-79
2023/09/01 00:40:52;;;;;;;7.72;4.60;;;19.30;54.40;;;;;;5008694;28;114224;-78
2023/09/01 00:43:19;;;;;;;7.00;4.70;;;19.30;54.30;;;;;;5026637;28;114384;-79
2023/09/01 00:45:46;;;;;;;7.25;4.22;;;19.30;54.30;;;;;;5024600;28;116054;-79
2023/09/01 00:48:14;;;;;;;8.00;5.03;;;19.30;54.40;;;;;;5024549;28;114640;-79
2023/09/01 00:50:41;;;;;;;9.57;4.97;;;19.30;54.30;;;;;;5025179;28;114421;-79
2023/09/01 00:53:09;;;;;;;10.45;5.07;;;19.40;54.10;;;;;;5027120;28;114260;-80
2023/09/01 00:55:37;;;;;;;7.43;4.82;;;19.30;54.20;;;;;;5024508;28;114914;-79
2023/09/01 00:58:04;;;;;;;9.52;5.03;;;19.40;54.10;;;;;;5008021;28;114899;-79
2023/09/01 01:00:32;;;;;;;11.00;5.50;;;19.40;54.00;;;;;;5026163;28;114100;-79
2023/09/01 01:03:01;;;;;;;9.23;5.32;;;19.40;53.50;;;;;;5024935;28;114511;-79
2023/09/01 01:05:46;;;;;;;8.50;5.43;;;19.40;53.90;;;;;;5024374;28;114817;-79
2023/09/01 01:08:38;;;;;;;9.52;5.50;;;19.50;53.80;;;;;;5023752;28;115162;-80
2023/09/01 01:11:09;;;;;;;14.27;7.95;;;19.40;53.70;;;;;;5026256;28;114215;-79
2023/09/01 01:13:40;;;;;;;9.82;5.32;;;19.40;52.30;;;;;;5008251;28;114179;-79
2023/09/01 01:16:07;;;;;;;12.18;6.22;;;19.30;53.80;;;;;;5007772;28;115450;-78
2023/09/01 01:18:34;;;;;;;11.88;6.07;;;19.30;53.30;;;;;;5024543;28;114843;-79
2023/09/01 01:21:15;;;;;;;10.45;5.72;;;19.30;52.90;;;;;;5024767;28;114409;-79
2023/09/01 01:23:43;;;;;;;12.52;6.45;;;19.20;53.40;;;;;;5025102;28;114220;-79
2023/09/01 01:26:19;;;;;;;10.48;5.95;;;19.10;53.00;;;;;;5023395;28;114968;-78
2023/09/01 01:28:47;;;;;;;9.40;5.20;;;19.20;52.60;;;;;;5007634;28;114679;-78
2023/09/01 01:31:14;;;;;;;13.40;5.70;;;19.10;53.90;;;;;;5024859;28;114414;-78
2023/09/01 01:33:54;;;;;;;8.40;5.25;;;19.20;53.80;;;;;;5024899;28;114445;-78
2023/09/01 01:36:25;;;;;;;10.60;5.18;;;19.20;54.10;;;;;;5007338;28;114991;-79
2023/09/01 01:39:28;;;;;;;10.27;5.72;;;19.20;53.90;;;;;;5023894;28;114607;-79
2023/09/01 01:41:57;;;;;;;13.13;5.85;;;19.20;53.60;;;;;;4981635;28;114437;-78
2023/09/01 01:44:29;;;;;;;10.70;5.72;;;19.00;54.30;;;;;;5026580;27;114273;-78
2023/09/01 01:46:56;;;;;;;9.98;6.35;;;19.10;54.10;;;;;;5027082;28;115107;-78
2023/09/01 01:49:24;;;;;;;8.90;5.50;;;19.20;54.20;;;;;;5027476;28;115188;-78
2023/09/01 01:51:51;;;;;;;9.88;5.45;;;19.10;54.20;;;;;;5027797;28;114407;-79
2023/09/01 01:54:20;;;;;;;8.90;5.82;;;19.20;54.10;;;;;;5028128;28;114433;-79
2023/09/01 01:56:47;;;;;;;10.43;5.70;;;19.20;53.80;;;;;;5027315;28;114901;-79
2023/09/01 01:59:15;;;;;;;10.23;5.75;;;19.20;53.90;;;;;;5027309;28;115202;-80
2023/09/01 02:01:42;;;;;;;16.30;7.78;;;19.10;53.30;;;;;;5028174;28;114049;-79
2023/09/01 02:04:09;;;;;;;12.60;6.25;;;19.00;52.30;;;;;;5029257;27;114670;-79
2023/09/01 02:06:36;;;;;;;9.27;5.32;;;18.90;53.80;;;;;;5026959;28;114985;-79
2023/09/01 02:09:09;;;;;;;10.38;6.00;;;18.90;54.20;;;;;;4994079;28;115345;-79
2023/09/01 02:11:36;;;;;;;11.20;5.80;;;19.00;54.10;;;;;;5028156;28;114185;-79
2023/09/01 02:14:05;;;;;;;9.90;5.80;;;19.00;54.10;;;;;;5028731;28;114422;-79
2023/09/01 02:16:32;;;;;;;14.23;6.40;;;19.00;54.10;;;;;;5009692;28;115066;-79
2023/09/01 02:18:59;;;;;;;12.10;7.68;;;19.10;53.60;;;;;;5010258;28;114641;-79
2023/09/01 02:21:26;;;;;;;14.73;7.25;;;19.10;52.50;;;;;;5027499;28;114540;-79
2023/09/01 02:23:54;;;;;;;11.10;5.97;;;19.10;52.30;;;;;;4994259;28;114439;-79
2023/09/01 02:26:21;;;;;;;11.27;6.22;;;19.00;53.40;;;;;;5026552;28;116389;-80
2023/09/01 02:28:49;;;;;;;12.00;6.32;;;19.00;53.80;;;;;;5010335;28;114761;-78
2023/09/01 02:31:16;;;;;;;12.15;5.72;;;19.00;53.50;;;;;;5027700;28;114406;-79
2023/09/01 02:33:43;;;;;;;10.35;5.90;;;19.10;53.80;;;;;;5029063;28;114428;-78
2023/09/01 02:36:33;;;;;;;10.73;5.65;;;19.10;53.80;;;;;;5026378;28;116326;-80
2023/09/01 02:39:00;;;;;;;10.93;6.07;;;19.20;53.70;;;;;;5027808;28;114628;-79
2023/09/01 02:41:28;;;;;;;9.90;6.15;;;19.00;53.60;;;;;;5010502;28;114180;-79
2023/09/01 02:43:56;;;;;;;10.45;6.03;;;19.10;53.70;;;;;;5027242;28;114302;-80
2023/09/01 02:46:23;;;;;;;11.70;6.22;;;19.10;53.50;;;;;;5026290;28;114924;-79
2023/09/01 02:48:51;;;;;;;10.20;6.40;;;19.00;53.40;;;;;;5027631;28;114702;-80
2023/09/01 02:51:18;;;;;;;12.85;6.65;;;19.00;53.40;;;;;;5028715;28;114307;-79
2023/09/01 02:53:46;;;;;;;10.82;6.30;;;19.00;53.90;;;;;;5027410;28;114491;-79
2023/09/01 02:56:13;;;;;;;13.40;6.20;;;19.00;53.80;;;;;;5009477;28;114995;-79
2023/09/01 02:58:40;;;;;;;10.52;5.85;;;19.00;53.80;;;;;;5026745;28;114751;-79
2023/09/01 03:01:08;;;;;;;9.73;5.82;;;19.00;53.60;;;;;;5010609;28;114534;-79
2023/09/01 03:03:38;;;;;;;10.85;6.28;;;19.00;54.00;;;;;;5010775;28;114062;-79
2023/09/01 03:06:08;;;;;;;11.68;5.88;;;18.90;53.50;;;;;;5025761;28;114860;-79
2023/09/01 03:08:36;;;;;;;9.05;4.80;;;18.80;53.00;;;;;;5026381;28;114669;-79
2023/09/01 03:11:03;;;;;;;11.27;5.47;;;18.80;52.70;;;;;;5027127;28;114081;-79
2023/09/01 03:13:31;;;;;;;9.48;4.85;;;18.70;54.00;;;;;;5027066;28;114513;-78
2023/09/01 03:15:58;;;;;;;8.48;4.97;;;18.70;53.10;;;;;;5009214;28;115703;-79
2023/09/01 03:18:25;;;;;;;11.15;5.25;;;18.60;52.70;;;;;;5025853;28;115175;-78
2023/09/01 03:20:53;;;;;;;10.00;5.25;;;18.60;53.90;;;;;;5027833;28;114417;-79
2023/09/01 03:23:21;;;;;;;10.85;5.05;;;18.70;54.20;;;;;;5027308;28;114387;-78
2023/09/01 03:25:57;;;;;;;7.82;4.10;;;18.70;53.70;;;;;;5025936;28;115158;-79
2023/09/01 03:28:25;;;;;;;8.82;4.68;;;18.60;52.10;;;;;;5027023;28;114636;-78
2023/09/01 03:30:52;;;;;;;9.40;4.50;;;18.20;53.20;;;;;;5027457;28;114056;-79
2023/09/01 03:33:22;;;;;;;8.10;4.40;;;18.10;53.90;;;;;;5026872;28;114478;-79
2023/09/01 03:35:49;;;;;;;7.53;4.55;;;18.00;54.20;;;;;;5026768;28;114970;-79
2023/09/01 03:38:17;;;;;;;8.15;4.75;;;18.00;52.60;;;;;;5008989;28;116427;-79
2023/09/01 03:40:44;;;;;;;9.05;5.15;;;17.80;55.00;;;;;;5009724;28;114345;-79
2023/09/01 03:43:12;;;;;;;8.32;5.05;;;17.80;55.00;;;;;;5027831;28;114232;-79
2023/09/01 03:45:43;;;;;;;10.85;5.50;;;17.90;55.10;;;;;;5025595;28;115482;-79
2023/09/01 03:48:10;;;;;;;9.60;5.45;;;18.00;54.90;;;;;;5025852;28;115375;-79
2023/09/01 03:50:37;;;;;;;9.52;5.70;;;18.00;54.40;;;;;;5009830;28;114220;-79
2023/09/01 03:53:04;;;;;;;7.50;4.20;;;18.10;52.50;;;;;;5027769;28;115066;-78
2023/09/01 03:55:32;;;;;;;7.30;4.65;;;17.90;54.80;;;;;;5025711;28;116051;-78
2023/09/01 03:58:00;;;;;;;8.32;4.78;;;18.00;55.00;;;;;;5009074;28;114700;-78
2023/09/01 04:00:27;;;;;;;8.40;4.65;;;18.20;55.10;;;;;;5009346;28;114293;-78
2023/09/01 04:02:54;;;;;;;9.85;5.57;;;18.30;54.70;;;;;;5025986;28;114338;-80
2023/09/01 04:05:21;;;;;;;11.98;5.75;;;18.40;54.00;;;;;;5025294;28;117062;-78
2023/09/01 04:07:48;;;;;;;8.05;5.00;;;18.40;53.10;;;;;;5025327;27;114579;-78
2023/09/01 04:10:16;;;;;;;8.80;5.25;;;18.50;53.40;;;;;;5026318;28;113970;-78
2023/09/01 04:12:43;;;;;;;7.63;4.45;;;18.50;52.40;;;;;;5026178;28;114417;-79
2023/09/01 04:15:10;;;;;;;7.78;4.78;;;18.40;52.20;;;;;;5024385;28;114951;-79
2023/09/01 04:17:38;;;;;;;8.40;4.28;;;18.30;53.70;;;;;;5008322;28;114892;-78
2023/09/01 04:20:07;;;;;;;8.25;4.47;;;18.40;53.80;;;;;;5026417;28;114304;-78
2023/09/01 04:22:34;;;;;;;7.38;4.63;;;18.50;53.10;;;;;;5025792;28;114343;-78
2023/09/01 04:25:02;;;;;;;7.75;5.35;;;18.50;53.70;;;;;;5024971;28;115042;-78
2023/09/01 04:27:32;;;;;;;8.55;4.15;;;18.60;53.90;;;;;;5026183;28;114635;-79
2023/09/01 04:29:59;;;;;;;7.57;4.78;;;18.70;53.50;;;;;;5025954;28;114350;-78
2023/09/01 04:32:37;;;;;;;7.28;3.90;;;18.80;53.20;;;;;;5025903;28;114377;-79
2023/09/01 04:35:05;;;;;;;7.82;4.50;;;18.80;52.00;;;;;;5025979;28;115112;-78
2023/09/01 04:37:32;;;;;;;6.88;4.03;;;19.00;53.00;;;;;;5025131;28;114780;-79
2023/09/01 04:40:00;;;;;;;6.55;3.85;;;19.10;52.50;;;;;;5025812;28;114576;-79
2023/09/01 04:42:28;;;;;;;6.82;4.00;;;19.30;51.70;;;;;;5026812;28;114145;-79
2023/09/01 04:44:55;;;;;;;6.93;3.65;;;19.30;51.70;;;;;;5025369;28;114849;-79
2023/09/01 04:47:24;;;;;;;7.18;4.45;;;19.40;51.40;;;;;;5024601;28;114836;-78
2023/09/01 04:49:51;;;;;;;6.97;4.20;;;19.50;51.40;;;;;;5025532;28;114241;-78
2023/09/01 04:52:19;;;;;;;6.45;4.28;;;19.60;50.60;;;;;;5025575;28;114229;-79
2023/09/01 04:54:59;;;;;;;9.07;4.65;;;19.60;51.30;;;;;;5024462;28;115588;-79
2023/09/01 04:57:27;;;;;;;7.13;4.47;;;19.70;49.70;;;;;;5007627;28;115056;-78
2023/09/01 04:59:54;;;;;;;8.10;4.85;;;19.80;50.20;;;;;;5008471;28;114074;-79
2023/09/01 05:02:21;;;;;;;9.60;5.38;;;19.80;50.60;;;;;;5026903;28;114178;-79
2023/09/01 05:04:49;;;;;;;9.23;5.47;;;19.80;49.90;;;;;;5024294;28;114863;-79
2023/09/01 05:07:16;;;;;;;7.85;5.20;;;19.80;49.60;;;;;;5024368;28;114672;-78
2023/09/01 05:09:43;;;;;;;9.90;5.40;;;19.80;49.90;;;;;;5025849;28;114306;-80
2023/09/01 05:12:10;;;;;;;9.98;5.03;;;19.80;49.00;;;;;;5025174;28;114331;-79
2023/09/01 05:14:38;;;;;;;7.78;4.85;;;19.90;49.60;;;;;;5025013;28;115337;-79
2023/09/01 05:17:05;;;;;;;7.35;4.93;;;19.80;49.40;;;;;;5007190;28;117471;-79
2023/09/01 05:19:32;;;;;;;9.57;5.07;;;19.80;49.60;;;;;;5024945;27;114252;-79
2023/09/01 05:21:59;;;;;;;10.02;5.55;;;19.90;48.90;;;;;;5026323;28;114245;-79
2023/09/01 05:24:26;;;;;;;9.10;5.22;;;19.90;49.00;;;;;;5007104;28;117934;-79
2023/09/01 05:26:54;;;;;;;8.38;4.80;;;19.90;49.50;;;;;;5007894;28;114709;-79
2023/09/01 05:29:21;;;;;;;8.57;5.05;;;19.90;48.40;;;;;;5025042;28;114217;-78
2023/09/01 05:31:48;;;;;;;7.68;4.85;;;19.90;48.60;;;;;;5025975;28;114356;-79
2023/09/01 05:34:15;;;;;;;9.68;5.05;;;19.90;49.10;;;;;;5024702;28;115048;-79
2023/09/01 05:36:42;;;;;;;8.57;5.28;;;19.90;49.00;;;;;;5024080;28;114691;-78
2023/09/01 05:39:09;;;;;;;7.78;5.03;;;19.90;48.50;;;;;;5024705;28;114394;-79
2023/09/01 05:41:36;;;;;;;9.57;5.03;;;19.90;48.20;;;;;;5026111;28;114167;-79
2023/09/01 05:44:03;;;;;;;8.10;4.22;;;19.80;49.40;;;;;;5007054;28;114952;-79
2023/09/01 05:46:31;;;;;;;7.25;5.03;;;19.90;48.10;;;;;;5023869;28;114541;-79
2023/09/01 05:48:59;;;;;;;7.28;4.70;;;19.80;49.00;;;;;;5007969;28;114302;-79
2023/09/01 05:51:26;;;;;;;9.32;4.38;;;19.80;49.40;;;;;;5025160;28;114348;-79
2023/09/01 05:53:53;;;;;;;8.88;4.82;;;19.80;48.50;;;;;;5025123;28;114961;-79
2023/09/01 05:56:20;;;;;;;10.68;5.20;;;19.80;49.00;;;;;;5024752;28;114709;-79
2023/09/01 05:58:47;;;;;;;10.07;4.75;;;19.80;49.20;;;;;;5024980;28;114348;-79
2023/09/01 06:01:18;;;;;;;9.05;5.03;;;19.90;49.20;;;;;;5025541;28;114470;-79
2023/09/01 06:03:45;;;;;;;7.47;4.07;;;19.90;49.20;;;;;;5024634;28;115402;-79
2023/09/01 06:06:12;;;;;;;7.43;4.20;;;19.90;48.10;;;;;;5025171;28;114997;-78
2023/09/01 06:08:40;;;;;;;7.53;3.83;;;20.00;48.40;;;;;;5024407;28;114340;-78
2023/09/01 06:11:12;;;;;;;5.30;3.35;;;20.20;47.40;;;;;;5026116;28;114337;-78
2023/09/01 06:13:39;;;;;;;6.55;3.67;;;20.30;46.90;;;;;;5023007;28;114974;-79
2023/09/01 06:16:06;;;;;;;7.38;4.05;;;20.30;47.30;;;;;;5025302;28;114553;-78
2023/09/01 06:18:33;;;;;;;7.28;3.40;;;20.50;46.80;;;;;;5024337;28;114220;-78
2023/09/01 06:21:00;;;;;;;5.82;3.83;;;20.70;45.80;;;;;;5025379;28;114181;-78
2023/09/01 06:23:28;;;;;;;9.00;3.53;;;20.70;46.70;;;;;;5024020;28;114994;-78
2023/09/01 06:25:55;;;;;;;6.43;3.85;;;20.80;45.80;;;;;;5023390;28;114157;-78
2023/09/01 06:28:22;;;;;;;8.93;3.78;;;20.80;45.50;;;;;;5025316;27;114192;-79
2023/09/01 06:30:49;;;;;;;9.45;4.40;;;21.00;45.60;;;;;;5027336;27;114422;-79
2023/09/01 06:33:17;;;;;;;8.73;4.90;;;21.00;45.70;;;;;;5026651;28;114971;-78
2023/09/01 06:35:44;;;;;;;8.60;4.93;;;21.20;45.50;;;;;;5027510;28;115287;-79
2023/09/01 06:38:11;;;;;;;8.70;4.32;;;21.20;45.80;;;;;;5028842;28;114272;-78
2023/09/01 06:40:39;;;;;;;9.10;4.18;;;21.30;44.90;;;;;;5029373;28;114129;-79
2023/09/01 06:43:06;;;;;;;8.57;5.70;;;21.30;45.30;;;;;;5027737;28;114871;-79
2023/09/01 06:45:33;;;;;;;7.20;4.20;;;21.40;44.80;;;;;;5027612;28;114833;-79
2023/09/01 06:48:00;;;;;;;9.77;3.92;;;21.60;44.30;;;;;;5028242;28;114161;-79
2023/09/01 06:50:28;;;;;;;10.77;4.20;;;21.60;43.90;;;;;;5027455;28;114261;-79
2023/09/01 06:52:59;;;;;;;10.57;4.43;;;21.50;44.00;;;;;;5026412;28;115066;-79
2023/09/01 06:55:26;;;;;;;9.75;3.72;;;21.30;44.30;;;;;;5026416;28;115022;-79
2023/09/01 06:57:53;;;;;;;8.07;3.90;;;21.30;44.60;;;;;;5028346;28;114091;-79
2023/09/01 07:00:20;;;;;;;7.82;3.65;;;21.30;44.30;;;;;;5027417;28;114200;-79
2023/09/01 07:02:47;;;;;;;9.57;4.13;;;21.10;45.00;;;;;;5027142;28;116933;-79
2023/09/01 07:05:17;;;;;;;10.38;4.40;;;21.20;44.80;;;;;;5026545;28;114652;-78
2023/09/01 07:07:45;;;;;;;11.20;6.30;;;21.20;45.10;;;;;;5027072;28;114072;-78
2023/09/01 07:10:12;;;;;;;9.45;4.50;;;21.30;45.30;;;;;;5027204;28;114321;-78
2023/09/01 07:12:42;;;;;;;14.68;5.65;;;21.50;45.20;;;;;;5025439;28;116019;-77
2023/09/01 07:15:10;;;;;;;17.40;7.10;;;21.60;44.50;;;;;;5024807;28;114696;-79
2023/09/01 07:17:37;;;;;;;15.35;6.47;;;21.80;44.30;;;;;;5027067;28;114391;-78
2023/09/01 07:20:10;;;;;;;16.50;7.32;;;21.80;44.30;;;;;;5026809;28;114284;-78
2023/09/01 07:22:37;;;;;;;18.40;7.50;;;21.80;43.90;;;;;;5025949;28;114950;-78
2023/09/01 07:25:09;;;;;;;14.88;5.78;;;21.80;44.10;;;;;;5024736;28;114589;-78
2023/09/01 07:27:36;;;;;;;13.27;5.72;;;21.80;43.40;;;;;;5025680;28;114079;-78
2023/09/01 07:30:03;;;;;;;14.07;5.80;;;21.80;43.70;;;;;;5026119;28;114092;-78
2023/09/01 07:32:34;;;;;;;10.77;4.13;;;21.80;42.80;;;;;;5024417;28;116247;-78
2023/09/01 07:35:04;;;;;;;7.78;3.90;;;21.90;42.20;;;;;;5025791;28;114649;-79
2023/09/01 07:37:32;;;;;;;7.97;3.50;;;22.10;41.70;;;;;;5026217;28;114084;-79
2023/09/01 07:39:59;;;;;;;6.38;3.20;;;22.20;41.90;;;;;;5026377;28;114386;-79
2023/09/01 07:42:26;;;;;;;5.93;2.85;;;22.20;41.30;;;;;;5024421;27;115231;-78
2023/09/01 07:44:54;;;;;;;4.80;2.70;;;22.30;41.50;;;;;;5024346;28;114647;-78
2023/09/01 07:47:21;;;;;;;6.05;3.00;;;22.30;41.60;;;;;;5026664;28;114328;-79
2023/09/01 07:49:48;;;;;;;5.88;2.40;;;22.30;41.40;;;;;;5026677;28;114268;-79
2023/09/01 07:52:15;;;;;;;6.90;3.03;;;22.30;41.30;;;;;;5023978;28;116039;-78
2023/09/01 07:54:42;;;;;;;6.32;3.15;;;22.40;41.90;;;;;;5024484;28;114578;-79
2023/09/01 07:57:09;;;;;;;6.35;3.40;;;22.60;40.30;;;;;;5026158;28;114306;-79
2023/09/01 07:59:36;;;;;;;5.13;2.70;;;22.70;39.80;;;;;;5026232;28;114334;-79
2023/09/01 08:02:03;;;;;;;5.60;2.35;;;22.80;40.40;;;;;;5024840;28;114765;-79
2023/09/01 08:04:30;;;;;;;3.90;2.38;;;22.80;39.50;;;;;;5025102;28;114112;-79
2023/09/01 08:06:59;;;;;;;5.40;2.60;;;22.80;38.90;;;;;;5007997;28;114455;-79
2023/09/01 08:09:26;;;;;;;5.30;2.65;;;22.80;38.60;;;;;;5024760;28;114750;-79
2023/09/01 08:11:53;;;;;;;8.10;2.60;;;22.80;38.60;;;;;;5023793;28;115413;-79
2023/09/01 08:14:21;;;;;;;6.47;2.57;;;22.80;38.60;;;;;;4981648;28;1249713;-79
2023/09/01 08:16:48;;;;;;;5.13;2.40;;;22.80;38.20;;;;;;5027025;28;114075;-78
2023/09/01 08:19:15;;;;;;;6.53;2.70;;;22.80;38.90;;;;;;5027638;28;114337;-80
2023/09/01 08:21:43;;;;;;;7.72;2.60;;;22.80;39.30;;;;;;5024685;28;114958;-79
2023/09/01 08:24:10;;;;;;;5.57;2.95;;;22.90;39.40;;;;;;5026140;28;114597;-79
2023/09/01 08:26:37;;;;;;;5.75;2.22;;;22.90;40.20;;;;;;5026813;28;114215;-79
2023/09/01 08:29:04;;;;;;;6.53;3.08;;;23.00;38.40;;;;;;5027123;28;114487;-79
2023/09/01 08:31:32;;;;;;;5.88;2.55;;;23.00;39.50;;;;;;5024911;28;114920;-79
2023/09/01 08:33:59;;;;;;;6.55;2.88;;;23.10;38.20;;;;;;5024913;28;114779;-80
2023/09/01 08:36:28;;;;;;;4.57;2.42;;;23.20;38.10;;;;;;5026812;28;114192;-78
2023/09/01 08:38:55;;;;;;;6.75;3.20;;;23.20;37.40;;;;;;5026677;28;114099;-79
2023/09/01 08:41:23;;;;;;;6.55;3.10;;;23.10;37.60;;;;;;5025978;28;114601;-79
2023/09/01 08:43:50;;;;;;;6.32;2.85;;;23.20;38.00;;;;;;5026450;28;115333;-79
2023/09/01 08:46:18;;;;;;;7.25;3.05;;;23.30;38.20;;;;;;5025781;28;114260;-79
2023/09/01 08:48:45;;;;;;;7.38;2.65;;;23.30;38.90;;;;;;5025628;28;114233;-79
2023/09/01 08:51:14;;;;;;;4.93;2.45;;;23.30;38.30;;;;;;5025474;28;114907;-79
2023/09/01 08:53:42;;;;;;;5.50;2.72;;;23.40;37.40;;;;;;5007805;28;114543;-79
2023/09/01 08:56:09;;;;;;;8.18;2.72;;;23.50;37.40;;;;;;5025430;28;114175;-78
2023/09/01 08:58:36;;;;;;;5.25;2.22;;;23.50;37.80;;;;;;5026310;28;114191;-79
2023/09/01 09:01:06;;;;;;;7.25;2.83;;;23.50;38.20;;;;;;5024432;28;114861;-79
2023/09/01 09:03:33;;;;;;;4.75;2.50;;;23.50;38.20;;;;;;5025747;28;114715;-78
2023/09/01 09:06:03;;;;;;;4.30;2.30;;;23.40;37.70;;;;;;5026503;28;114287;-78
2023/09/01 09:08:30;;;;;;;7.15;2.80;;;23.40;38.20;;;;;;5028289;28;114256;-77
2023/09/01 09:10:57;;;;;;;5.03;2.67;;;23.40;37.70;;;;;;5026697;28;114385;-79
2023/09/01 09:13:25;;;;;;;4.40;2.17;;;23.50;37.80;;;;;;5025419;28;114659;-79
2023/09/01 09:16:11;;;;;;;5.13;2.45;;;23.50;37.70;;;;;;5025574;28;114095;-79
2023/09/01 09:18:43;;;;;;;6.10;2.47;;;23.50;37.80;;;;;;5026367;28;114169;-79
2023/09/01 09:21:28;;;;;;;5.43;2.30;;;23.50;37.00;;;;;;5025175;28;115189;-79
2023/09/01 09:23:57;;;;;;;7.75;2.42;;;23.50;36.90;;;;;;5024086;28;114743;-80
2023/09/01 09:26:55;;;;;;;7.40;3.70;;;23.30;37.20;;;;;;5024987;28;114277;-80
2023/09/01 09:29:22;;;;;;;7.68;3.95;;;23.10;37.30;;;;;;5025032;28;114152;-78
2023/09/01 09:31:49;;;;;;;7.32;2.80;;;23.00;37.80;;;;;;5007149;28;118666;-79
2023/09/01 09:34:24;;;;;;;5.43;2.58;;;23.00;37.50;;;;;;5024284;28;115122;-80
2023/09/01 09:36:51;;;;;;;6.28;2.60;;;22.90;37.60;;;;;;5028700;28;114327;-78
2023/09/01 09:39:22;;;;;;;5.93;2.30;;;22.80;37.90;;;;;;5026285;28;114237;-78
2023/09/01 09:41:59;;;;;;;6.88;2.50;;;22.80;37.40;;;;;;5024693;28;115907;-79
2023/09/01 09:44:32;;;;;;;6.65;2.95;;;22.80;37.80;;;;;;5023890;28;114724;-79
2023/09/01 09:47:01;;;;;;;6.28;2.60;;;22.70;39.00;;;;;;5024692;28;114513;-79
2023/09/01 09:49:30;;;;;;;5.07;2.20;;;22.60;38.40;;;;;;5008322;28;114290;-79
2023/09/01 09:52:00;;;;;;;4.53;2.05;;;22.60;37.70;;;;;;5023457;28;116351;-80
2023/09/01 09:54:28;;;;;;;5.45;2.55;;;22.60;38.40;;;;;;5023666;28;114661;-79
2023/09/01 09:56:56;;;;;;;5.03;2.63;;;22.60;37.90;;;;;;5024759;28;114214;-79
2023/09/01 09:59:28;;;;;;;5.32;2.50;;;22.60;37.60;;;;;;5025074;28;114431;-79
2023/09/01 10:01:55;;;;;;;5.80;2.80;;;22.60;37.60;;;;;;5023658;28;115113;-79
2023/09/01 10:04:25;;;;;;;4.60;2.55;;;22.50;38.40;;;;;;5023245;27;118065;-79
2023/09/01 10:06:52;;;;;;;6.88;2.75;;;22.50;38.60;;;;;;5026869;28;114399;-79
2023/09/01 10:09:19;;;;;;;7.63;3.15;;;22.50;37.90;;;;;;5029200;28;114261;-79
2023/09/01 10:11:47;;;;;;;4.80;2.63;;;22.50;38.00;;;;;;5027200;28;115544;-80
2023/09/01 10:14:15;;;;;;;7.18;2.60;;;22.50;38.30;;;;;;5026617;28;114849;-79
2023/09/01 10:16:43;;;;;;;5.63;2.40;;;22.50;38.30;;;;;;5011217;28;114501;-79
2023/09/01 10:19:11;;;;;;;6.00;2.55;;;22.50;39.60;;;;;;5027874;28;114324;-79
2023/09/01 10:21:40;;;;;;;5.63;2.60;;;22.50;39.20;;;;;;5027942;28;114844;-79
2023/09/01 10:24:16;;;;;;;7.78;3.13;;;22.50;38.60;;;;;;5010334;28;116160;-79
2023/09/01 10:26:43;;;;;;;5.53;2.42;;;22.60;38.80;;;;;;5027703;28;114183;-79
2023/09/01 10:29:12;;;;;;;4.95;2.42;;;22.60;38.80;;;;;;5027943;28;114143;-79
2023/09/01 10:31:42;;;;;;;4.82;2.30;;;22.60;38.80;;;;;;5026423;28;115037;-79
2023/09/01 10:34:13;;;;;;;5.65;2.35;;;22.70;38.70;;;;;;5010018;28;115786;-78
2023/09/01 10:36:44;;;;;;;6.80;2.83;;;22.80;38.10;;;;;;5027849;28;114286;-78
2023/09/01 10:39:26;;;;;;;5.20;2.38;;;22.80;38.40;;;;;;5028932;28;114500;-78
2023/09/01 10:41:57;;;;;;;4.38;2.22;;;22.80;38.20;;;;;;5027530;28;117406;-78
2023/09/01 10:44:40;;;;;;;5.38;2.47;;;22.60;37.80;;;;;;5027744;28;114875;-79
2023/09/01 10:47:30;;;;;;;5.20;2.38;;;22.60;38.00;;;;;;5027485;28;115264;-79
2023/09/01 10:50:01;;;;;;;5.07;2.40;;;22.60;38.80;;;;;;5016715;28;114610;-78
2023/09/01 10:52:31;;;;;;;7.03;2.85;;;22.50;38.20;;;;;;5026292;28;116388;-79
2023/09/01 10:55:04;;;;;;;6.68;2.60;;;22.60;38.30;;;;;;5026554;28;114681;-78
2023/09/01 10:57:38;;;;;;;6.82;2.42;;;22.60;38.20;;;;;;5027090;28;114240;-78
2023/09/01 11:00:31;;;;;;;5.25;2.17;;;22.70;38.00;;;;;;5028513;28;114323;-79
2023/09/01 11:03:29;;;;;;;4.95;2.10;;;22.80;38.10;;;;;;5025943;28;116153;-80
2023/09/01 11:05:57;;;;;;;4.40;2.08;;;22.70;38.50;;;;;;5027257;28;114618;-79
2023/09/01 11:08:25;;;;;;;5.22;2.13;;;22.70;37.50;;;;;;5028212;27;114504;-79
2023/09/01 11:10:55;;;;;;;5.15;2.45;;;22.70;37.60;;;;;;5027361;28;114256;-78
2023/09/01 11:13:25;;;;;;;6.30;2.30;;;22.70;37.70;;;;;;5026381;28;114832;-78
2023/09/01 11:15:52;;;;;;;6.00;2.58;;;22.60;38.30;;;;;;5026807;27;116980;-79
2023/09/01 11:18:20;;;;;;;5.78;2.58;;;22.70;37.90;;;;;;5026981;28;114181;-79
2023/09/01 11:20:55;;;;;;;6.25;2.72;;;22.70;38.40;;;;;;5027978;28;114773;-80
2023/09/01 11:23:24;;;;;;;5.07;2.40;;;22.70;38.30;;;;;;5026453;28;116170;-79
2023/09/01 11:25:58;;;;;;;6.53;2.58;;;22.80;38.60;;;;;;5011637;28;115114;-79
2023/09/01 11:28:25;;;;;;;4.95;2.65;;;23.00;37.90;;;;;;5028301;28;114361;-80
2023/09/01 11:30:57;;;;;;;6.15;2.20;;;23.20;38.30;;;;;;5026779;28;114299;-79
2023/09/01 11:33:24;;;;;;;5.28;2.42;;;23.30;37.70;;;;;;5009396;28;114986;-79
2023/09/01 11:36:10;;;;;;;4.88;2.38;;;23.40;37.80;;;;;;5027024;28;114594;-79
2023/09/01 11:38:38;;;;;;;3.92;2.05;;;23.50;38.10;;;;;;5027670;28;114482;-79
2023/09/01 11:41:07;;;;;;;6.10;2.38;;;23.50;36.80;;;;;;5028289;28;114388;-80
2023/09/01 11:43:34;;;;;;;5.10;2.40;;;23.50;36.70;;;;;;5026058;28;115039;-78
2023/09/01 11:46:03;;;;;;;4.53;2.00;;;23.50;36.80;;;;;;5026274;28;114727;-79
2023/09/01 11:48:34;;;;;;;5.70;2.10;;;23.40;36.70;;;;;;5026780;28;114359;-79
2023/09/01 11:51:10;;;;;;;7.05;2.58;;;23.30;37.20;;;;;;5027687;28;114007;-79
2023/09/01 11:53:38;;;;;;;5.18;2.35;;;23.20;37.50;;;;;;5026881;28;114956;-78
2023/09/01 11:56:19;;;;;;;5.63;2.20;;;23.10;37.30;;;;;;5008697;28;114698;-79
2023/09/01 11:58:48;;;;;;;5.30;2.90;;;23.10;37.30;;;;;;5026379;28;114294;-79
2023/09/01 12:01:16;;;;;;;5.47;2.78;;;22.90;37.80;;;;;;5009674;28;114431;-78
2023/09/01 12:03:47;;;;;;;4.25;2.30;;;22.90;38.20;;;;;;5026547;27;114852;-79
2023/09/01 12:06:15;;;;;;;10.32;5.30;;;22.90;38.20;;;;;;5027056;28;114654;-79
2023/09/01 12:08:43;;;;;;;6.45;2.78;;;22.80;38.20;;;;;;5027185;28;114992;-80
2023/09/01 12:11:10;;;;;;;6.05;2.60;;;22.80;38.30;;;;;;5026335;28;114181;-79
2023/09/01 12:13:38;;;;;;;4.80;2.28;;;22.80;38.90;;;;;;5024752;28;115177;-78
2023/09/01 12:16:05;;;;;;;6.78;2.80;;;22.80;38.70;;;;;;5025328;28;114804;-77
2023/09/01 12:18:34;;;;;;;5.13;2.40;;;22.80;38.80;;;;;;5009528;28;114176;-78
2023/09/01 12:21:03;;;;;;;6.45;3.20;;;22.80;38.60;;;;;;5009036;28;114264;-79
2023/09/01 12:23:51;;;;;;;5.30;2.60;;;22.80;39.30;;;;;;5026139;28;114863;-78
2023/09/01 12:26:19;;;;;;;5.50;2.50;;;22.90;39.60;;;;;;5026115;28;114624;-79
2023/09/01 12:28:46;;;;;;;4.15;2.25;;;22.80;39.70;;;;;;5024979;28;114278;-78
2023/09/01 12:31:14;;;;;;;6.53;2.35;;;22.80;39.80;;;;;;5027232;28;114877;-78
2023/09/01 12:33:42;;;;;;;5.38;2.50;;;22.80;40.10;;;;;;5025950;28;115491;-78
2023/09/01 12:36:09;;;;;;;4.47;2.67;;;22.80;40.20;;;;;;5025753;28;115879;-78
2023/09/01 12:38:36;;;;;;;5.60;2.60;;;22.80;40.20;;;;;;5025300;28;114307;-78
2023/09/01 12:41:03;;;;;;;5.82;2.33;;;22.80;40.40;;;;;;5026813;28;114324;-79
2023/09/01 12:43:32;;;;;;;5.97;2.40;;;22.70;40.70;;;;;;5024794;28;114931;-80
2023/09/01 12:45:59;;;;;;;5.75;2.38;;;22.80;40.80;;;;;;5024557;28;117609;-80